LTAC/ESB METAR and TAF weather

Enter ICAO airport designator
Station Type Date Time Source
LTAC METAR 2019/02/23 22:50 UTC NOAA

LTAC 232250Z 03008KT 9999 -RA BKN025 BKN090 03/01 Q1021 NOSIG


Station Type Date Time Source
LTAC Decoded METAR 2019/02/23 22:50 UTC NOAA

Ankara / Esenboga, Turkey (LTAC) 40-07N 032-59E 949M
Feb 23, 2019 - 05:50 PM EST / 2019.02.23 2250 UTC
Wind: from the NNE (030 degrees) at 9 MPH (8 KT):0
Visibility: greater than 7 mile(s):0
Sky conditions: mostly cloudy
Weather: light rain
Temperature: 37 F (3 C)
Dew Point: 33 F (1 C)
Relative Humidity: 86%
Pressure (altimeter): 30.15 in. Hg (1021 hPa)
ob: LTAC 232250Z 03008KT 9999 -RA BKN025 BKN090 03/01 Q1021 NOSIG
cycle: 23

Station Type Date Time Source
LTAC TAF 2019/02/23 18:03 UTC NOAA

TAF TAF LTAC 231640Z 2318/2418 VRB02KT 9999 SCT030 BKN080
TEMPO 2318/2321 -RA BKN025 BKN080 PROB40 2322/2401 -RASN BKN025 BKN080 PROB30 2403/2406 4000 BR


Example: see airport list